createdAt,value
2023-02-28T00:01:11.152Z,91.1
2023-02-28T00:03:37.816Z,92
2023-02-28T00:06:04.519Z,90.9
2023-02-28T00:08:31.202Z,89.7
2023-02-28T00:10:57.885Z,89.1
2023-02-28T00:13:24.570Z,90
2023-02-28T00:15:51.270Z,89.8
2023-02-28T00:18:17.941Z,91.3
2023-02-28T00:20:44.619Z,91.9
2023-02-28T00:25:38.005Z,93
2023-02-28T00:28:03.237Z,92.7
2023-02-28T00:30:29.973Z,92.8
2023-02-28T00:32:56.602Z,92.4
2023-02-28T00:35:23.293Z,93.1
2023-02-28T00:37:49.976Z,93
2023-02-28T00:40:16.682Z,93.9
2023-02-28T00:42:43.338Z,94.3
2023-02-28T00:45:10.027Z,94.4
2023-02-28T00:47:36.814Z,94.1
2023-02-28T00:50:03.436Z,93.1
2023-02-28T00:52:30.086Z,93.2
2023-02-28T00:54:56.778Z,93.9
2023-02-28T00:57:23.468Z,94.3
2023-02-28T00:59:50.134Z,94.3
2023-02-28T01:02:15.367Z,95.1
2023-02-28T01:04:42.053Z,94.5
2023-02-28T01:07:08.937Z,96
2023-02-28T01:09:35.496Z,97.8
2023-02-28T01:12:02.115Z,98.8
2023-02-28T01:14:28.816Z,99.8
2023-02-28T01:16:55.484Z,100
2023-02-28T01:19:22.170Z,100
2023-02-28T01:24:15.597Z,100
2023-02-28T01:26:42.231Z,100
2023-02-28T01:29:08.923Z,100
2023-02-28T01:31:35.618Z,100
2023-02-28T01:36:27.502Z,100
2023-02-28T01:38:54.192Z,100
2023-02-28T01:41:20.866Z,100
2023-02-28T01:43:47.600Z,100
2023-02-28T01:46:14.232Z,100
2023-02-28T01:48:40.942Z,100
2023-02-28T01:51:07.694Z,100
2023-02-28T01:53:34.313Z,100
2023-02-28T01:56:00.989Z,100
2023-02-28T01:58:27.711Z,100
2023-02-28T02:00:54.366Z,100
2023-02-28T02:03:21.043Z,100
2023-02-28T02:05:46.255Z,100
2023-02-28T02:08:12.951Z,100
2023-02-28T02:10:39.647Z,100
2023-02-28T02:13:06.315Z,100
2023-02-28T02:15:33.016Z,100
2023-02-28T02:17:59.687Z,100
2023-02-28T02:20:26.382Z,100
2023-02-28T02:22:53.059Z,100
2023-02-28T02:25:19.754Z,100
2023-02-28T02:27:46.489Z,100
2023-02-28T02:30:13.116Z,100
2023-02-28T02:32:39.802Z,100
2023-02-28T02:35:06.488Z,100
2023-02-28T02:37:31.711Z,100
2023-02-28T02:39:58.396Z,100
2023-02-28T02:42:25.076Z,100
2023-02-28T02:44:51.768Z,100
2023-02-28T02:47:18.444Z,100
2023-02-28T02:52:11.850Z,100
2023-02-28T02:54:38.543Z,100
2023-02-28T02:57:05.185Z,100
2023-02-28T02:59:31.922Z,100
2023-02-28T03:01:58.579Z,100
2023-02-28T03:04:25.263Z,100
2023-02-28T03:06:51.986Z,100
2023-02-28T03:09:17.162Z,100
2023-02-28T03:11:43.844Z,100
2023-02-28T03:14:10.571Z,100
2023-02-28T03:16:37.217Z,100
2023-02-28T03:19:03.907Z,100
2023-02-28T03:21:30.599Z,100
2023-02-28T03:23:57.290Z,100
2023-02-28T03:26:23.964Z,100
2023-02-28T03:28:50.664Z,100
2023-02-28T03:31:17.330Z,100
2023-02-28T03:33:44.033Z,100
2023-02-28T03:36:10.717Z,100
2023-02-28T03:38:37.411Z,100
2023-02-28T03:41:02.634Z,100
2023-02-28T03:43:29.304Z,100
2023-02-28T03:45:56.002Z,100
2023-02-28T03:48:22.716Z,100
2023-02-28T03:50:49.379Z,100
2023-02-28T03:53:16.062Z,100
2023-02-28T03:55:42.744Z,100
2023-02-28T03:58:09.429Z,100
2023-02-28T04:00:36.117Z,100
2023-02-28T04:03:02.827Z,100
2023-02-28T04:05:29.483Z,100
2023-02-28T04:07:56.207Z,100
2023-02-28T04:10:22.861Z,100
2023-02-28T04:12:48.085Z,100
2023-02-28T04:15:14.776Z,100
2023-02-28T04:17:41.460Z,100
2023-02-28T04:20:08.191Z,100
2023-02-28T04:22:34.855Z,100
2023-02-28T04:25:01.562Z,100
2023-02-28T04:27:28.226Z,100
2023-02-28T04:29:54.891Z,100
2023-02-28T04:32:21.562Z,100
2023-02-28T04:34:48.250Z,100
2023-02-28T04:37:14.934Z,100
2023-02-28T04:39:41.639Z,100
2023-02-28T04:42:08.389Z,100
2023-02-28T04:44:33.531Z,100
2023-02-28T04:47:00.215Z,100
2023-02-28T04:49:26.910Z,100
2023-02-28T04:51:53.589Z,100
2023-02-28T04:54:20.285Z,100
2023-02-28T04:56:47.032Z,100
2023-02-28T04:59:13.637Z,100
2023-02-28T05:01:40.323Z,100
2023-02-28T05:04:07.073Z,100
2023-02-28T05:06:33.832Z,100
2023-02-28T05:09:00.380Z,100
2023-02-28T05:11:27.071Z,100
2023-02-28T05:13:53.788Z,100
2023-02-28T05:16:18.975Z,100
2023-02-28T05:18:45.654Z,100
2023-02-28T05:21:12.356Z,100
2023-02-28T05:23:39.031Z,100
2023-02-28T05:26:05.721Z,100
2023-02-28T05:28:32.404Z,100
2023-02-28T05:30:59.074Z,99.9
2023-02-28T05:33:25.771Z,99
2023-02-28T05:35:52.462Z,98.4
2023-02-28T05:38:19.144Z,98.4
2023-02-28T05:40:45.835Z,98.8
2023-02-28T05:43:12.526Z,98.4
2023-02-28T05:45:39.222Z,97.5
2023-02-28T05:48:04.416Z,96.7
2023-02-28T05:50:31.194Z,96.2
2023-02-28T05:52:57.797Z,94.7
2023-02-28T05:55:24.474Z,95.4
2023-02-28T05:57:51.198Z,96
2023-02-28T06:00:17.864Z,95.3
2023-02-28T06:02:44.543Z,96.5
2023-02-28T06:05:11.232Z,95.9
2023-02-28T06:07:37.931Z,94.9
2023-02-28T06:10:04.674Z,94.6
2023-02-28T06:12:31.355Z,94.4
2023-02-28T06:14:57.986Z,94.7
2023-02-28T06:17:24.699Z,95.2
2023-02-28T06:19:49.944Z,94.1
2023-02-28T06:22:16.700Z,93.2
2023-02-28T06:24:43.315Z,93.5
2023-02-28T06:27:09.936Z,93.1
2023-02-28T06:29:36.629Z,93.2
2023-02-28T06:32:03.307Z,92.7
2023-02-28T06:34:29.992Z,93.3
2023-02-28T06:36:56.692Z,93.8
2023-02-28T06:39:23.371Z,91.8
2023-02-28T06:41:50.056Z,91.2
2023-02-28T06:44:16.748Z,90.7
2023-02-28T06:46:43.437Z,92.4
2023-02-28T06:49:10.121Z,92.2
2023-02-28T06:51:35.354Z,94.2
2023-02-28T06:54:02.107Z,91.4
2023-02-28T06:56:28.719Z,92.2
2023-02-28T06:58:55.406Z,90.2
2023-02-28T07:01:22.083Z,90.4
2023-02-28T07:03:48.839Z,91.2
2023-02-28T07:06:15.446Z,92.4
2023-02-28T07:08:42.248Z,91.1
2023-02-28T07:11:08.813Z,90.4
2023-02-28T07:13:35.569Z,90.4
2023-02-28T07:16:02.198Z,91.7
2023-02-28T07:18:28.893Z,89
2023-02-28T07:20:55.555Z,91.1
2023-02-28T07:23:20.795Z,89.5
2023-02-28T07:25:47.475Z,88.5
2023-02-28T07:28:14.172Z,88.8
2023-02-28T07:30:39.402Z,88.5
2023-02-28T07:33:06.104Z,88.4
2023-02-28T07:35:32.782Z,88.5
2023-02-28T07:37:59.465Z,87
2023-02-28T07:40:26.155Z,88.5
2023-02-28T07:42:52.835Z,87.3
2023-02-28T07:45:19.521Z,88.7
2023-02-28T07:47:46.211Z,88.4
2023-02-28T07:50:12.903Z,89.1
2023-02-28T07:52:39.580Z,89.2
2023-02-28T07:55:06.317Z,89.1
2023-02-28T07:57:32.975Z,87.2
2023-02-28T07:59:59.701Z,86.3
2023-02-28T08:02:24.978Z,85.4
2023-02-28T08:04:51.618Z,86.3
2023-02-28T08:07:18.240Z,85.9
2023-02-28T08:09:44.925Z,85.8
2023-02-28T08:12:11.632Z,84.2
2023-02-28T08:14:38.306Z,83.7
2023-02-28T08:17:04.985Z,82.8
2023-02-28T08:19:31.659Z,83.5
2023-02-28T08:21:58.367Z,82.4
2023-02-28T08:24:25.059Z,81.8
2023-02-28T08:26:51.729Z,82.2
2023-02-28T08:29:18.402Z,81.2
2023-02-28T08:31:45.133Z,80.6
2023-02-28T08:34:10.386Z,79.8
2023-02-28T08:36:37.057Z,80.1
2023-02-28T08:39:03.718Z,80.2
2023-02-28T08:41:30.389Z,81.1
2023-02-28T08:43:57.070Z,79.7
2023-02-28T08:46:23.748Z,79.6
2023-02-28T08:48:50.436Z,78.3
2023-02-28T08:51:17.108Z,78.5
2023-02-28T08:53:43.796Z,77
2023-02-28T08:58:37.260Z,76.5
2023-02-28T09:01:03.869Z,76.2
2023-02-28T09:03:30.656Z,76.6
2023-02-28T09:05:55.930Z,75.9
2023-02-28T09:08:22.658Z,74.9
2023-02-28T09:10:49.121Z,74.1
2023-02-28T09:13:15.840Z,73.2
2023-02-28T09:18:09.348Z,73.7
2023-02-28T09:20:35.969Z,73.4
2023-02-28T09:23:02.695Z,72.4
2023-02-28T09:25:29.493Z,71.5
2023-02-28T09:27:56.067Z,71.1
2023-02-28T09:30:22.724Z,70.4
2023-02-28T09:32:49.359Z,72
2023-02-28T09:35:16.190Z,70.9
2023-02-28T09:37:41.423Z,69.1
2023-02-28T09:40:08.051Z,68.9
2023-02-28T09:42:34.785Z,68.8
2023-02-28T09:45:01.430Z,67.8
2023-02-28T09:47:27.955Z,68.1
2023-02-28T09:49:54.781Z,68.1
2023-02-28T09:52:21.565Z,68.3
2023-02-28T09:54:48.184Z,68
2023-02-28T09:57:14.714Z,67.8
2023-02-28T09:59:41.607Z,67.6
2023-02-28T10:02:08.072Z,66.6
2023-02-28T10:04:34.953Z,65.3
2023-02-28T10:07:01.442Z,66.3
2023-02-28T10:09:26.846Z,65.4
2023-02-28T10:11:53.522Z,64.8
2023-02-28T10:14:20.204Z,63.9
2023-02-28T10:16:46.860Z,64.7
2023-02-28T10:19:13.594Z,66
2023-02-28T10:21:40.270Z,66.1
2023-02-28T10:24:06.925Z,66.4
2023-02-28T10:26:33.710Z,66.3
2023-02-28T10:29:00.302Z,65.8
2023-02-28T10:31:26.960Z,65.2
2023-02-28T10:33:53.731Z,64.7
2023-02-28T10:36:20.395Z,63.9
2023-02-28T10:38:46.895Z,65.4
2023-02-28T10:41:12.280Z,64.1
2023-02-28T10:43:38.791Z,64
2023-02-28T10:46:05.493Z,63.3
2023-02-28T10:48:32.316Z,61.7
2023-02-28T10:50:58.861Z,61.6
2023-02-28T10:53:25.789Z,60.6
2023-02-28T10:55:52.402Z,61.5
2023-02-28T10:58:18.935Z,60
2023-02-28T11:00:45.746Z,60
2023-02-28T11:03:12.437Z,60.1
2023-02-28T11:05:39.108Z,59
2023-02-28T11:08:05.828Z,59.1
2023-02-28T11:10:32.366Z,58.7
2023-02-28T11:12:57.689Z,58.7
2023-02-28T11:15:24.310Z,59.1
2023-02-28T11:17:51.137Z,59.5
2023-02-28T11:20:17.598Z,57.2
2023-02-28T11:22:44.399Z,57.6
2023-02-28T11:25:11.150Z,58.5
2023-02-28T11:30:04.353Z,58.1
2023-02-28T11:32:31.206Z,59
2023-02-28T11:34:57.913Z,58.8
2023-02-28T11:37:24.596Z,58.6
2023-02-28T11:39:51.255Z,58.1
2023-02-28T11:42:17.909Z,59.1
2023-02-28T11:44:43.153Z,58.2
2023-02-28T11:47:09.869Z,59
2023-02-28T11:49:36.544Z,58.4
2023-02-28T11:52:03.205Z,59.5
2023-02-28T11:54:29.870Z,58.5
2023-02-28T11:56:56.562Z,58.8
2023-02-28T11:59:23.294Z,58.8
2023-02-28T12:01:49.951Z,58.8
2023-02-28T12:04:16.696Z,58.5
2023-02-28T12:06:43.325Z,57.3
2023-02-28T12:09:09.982Z,57.3
2023-02-28T12:11:36.732Z,59.2
2023-02-28T12:14:03.370Z,58.3
2023-02-28T12:16:28.589Z,59.3
2023-02-28T12:18:55.327Z,57.6
2023-02-28T12:21:22.020Z,56.4
2023-02-28T12:23:48.732Z,56.8
2023-02-28T12:26:15.295Z,56.7
2023-02-28T12:28:42.042Z,57.2
2023-02-28T12:31:08.720Z,57.4
2023-02-28T12:33:35.415Z,57
2023-02-28T12:36:02.078Z,57.1
2023-02-28T12:38:28.836Z,57.6
2023-02-28T12:40:55.439Z,56
2023-02-28T12:43:22.196Z,56.7
2023-02-28T12:45:48.782Z,56
2023-02-28T12:48:13.964Z,56.9
2023-02-28T12:50:40.720Z,57.4
2023-02-28T12:53:07.426Z,56.2
2023-02-28T12:55:34.177Z,56.5
2023-02-28T12:58:00.655Z,56
2023-02-28T13:00:27.469Z,57.2
2023-02-28T13:02:53.985Z,56.9
2023-02-28T13:05:20.876Z,56.2
2023-02-28T13:07:47.367Z,55.8
2023-02-28T13:12:40.879Z,57.3
2023-02-28T13:15:07.643Z,55.7
2023-02-28T13:17:34.271Z,56.4
2023-02-28T13:19:59.591Z,56.6
2023-02-28T13:22:26.190Z,55.3
2023-02-28T13:24:52.874Z,55.2
2023-02-28T13:27:19.565Z,54.9
2023-02-28T13:29:46.263Z,55.7
2023-02-28T13:32:12.958Z,55.9
2023-02-28T13:34:39.615Z,55.6
2023-02-28T13:37:06.126Z,57.1
2023-02-28T13:39:32.941Z,55.7
2023-02-28T13:41:59.647Z,56
2023-02-28T13:44:26.340Z,56.7
2023-02-28T13:46:52.864Z,55.7
2023-02-28T13:49:19.740Z,55.6
2023-02-28T13:51:44.921Z,55
2023-02-28T13:54:11.634Z,55.8
2023-02-28T13:56:38.171Z,55.7
2023-02-28T13:59:05.020Z,56.3
2023-02-28T14:01:31.510Z,54.6
2023-02-28T14:03:58.369Z,55.1
2023-02-28T14:06:25.026Z,55.3
2023-02-28T14:08:51.763Z,56.8
2023-02-28T14:11:18.339Z,55.4
2023-02-28T14:13:45.134Z,56
2023-02-28T14:16:11.773Z,55.9
2023-02-28T14:18:38.291Z,56
2023-02-28T14:23:31.922Z,54.8
2023-02-28T14:25:57.074Z,55
2023-02-28T14:28:23.766Z,55.6
2023-02-28T14:30:50.258Z,54.4
2023-02-28T14:33:17.117Z,56.1
2023-02-28T14:35:43.615Z,54.8
2023-02-28T14:38:10.513Z,54.8
2023-02-28T14:40:37.017Z,55.6
2023-02-28T14:43:03.868Z,56.4
2023-02-28T14:45:30.589Z,56.5
2023-02-28T14:47:57.196Z,55.9
2023-02-28T14:50:23.885Z,55.8
2023-02-28T14:52:50.598Z,55.9
2023-02-28T14:55:17.260Z,55.6
2023-02-28T14:57:42.502Z,55.6
2023-02-28T15:00:09.011Z,55.9
2023-02-28T15:02:35.702Z,57.5
2023-02-28T15:05:02.586Z,58
2023-02-28T15:07:29.245Z,57.5
2023-02-28T15:09:55.908Z,57.2
2023-02-28T15:12:22.572Z,56.1
2023-02-28T15:14:49.286Z,56.2
2023-02-28T15:17:15.942Z,56.9
2023-02-28T15:19:42.642Z,57.2
2023-02-28T15:22:09.339Z,58.2
2023-02-28T15:24:36.070Z,58.1
2023-02-28T15:27:02.667Z,59
2023-02-28T15:29:27.938Z,58.8
2023-02-28T15:31:54.593Z,58.4
2023-02-28T15:34:21.130Z,59.1
2023-02-28T15:36:47.884Z,59.5
2023-02-28T15:39:14.666Z,59.1
2023-02-28T15:41:39.894Z,58.5
2023-02-28T15:44:06.581Z,60.2
2023-02-28T15:46:33.308Z,60
2023-02-28T15:48:59.997Z,59.4
2023-02-28T15:51:26.468Z,59.3
2023-02-28T15:53:53.375Z,59.7
2023-02-28T15:56:20.016Z,60.1
2023-02-28T15:58:46.668Z,60.6
2023-02-28T16:01:13.411Z,60.3
2023-02-28T16:03:40.166Z,60.4
2023-02-28T16:06:06.779Z,60.4
2023-02-28T16:08:33.465Z,60.7
2023-02-28T16:11:00.103Z,61.3
2023-02-28T16:13:25.273Z,61
2023-02-28T16:15:52.034Z,61.7
2023-02-28T16:18:18.725Z,61.8
2023-02-28T16:20:45.421Z,62.7
2023-02-28T16:23:12.006Z,62.6
2023-02-28T16:25:38.781Z,63.3
2023-02-28T16:28:05.477Z,62.9
2023-02-28T16:30:32.127Z,62.5
2023-02-28T16:32:58.895Z,63.3
2023-02-28T16:35:25.340Z,63.5
2023-02-28T16:37:52.183Z,63.8
2023-02-28T16:40:18.975Z,63.8
2023-02-28T16:45:12.334Z,63.9
2023-02-28T16:47:37.485Z,64.1
2023-02-28T16:50:03.993Z,64.4
2023-02-28T16:52:30.853Z,65.4
2023-02-28T16:54:57.546Z,65.2
2023-02-28T16:57:24.276Z,65.7
2023-02-28T16:59:50.943Z,65.5
2023-02-28T17:02:17.416Z,65.4
2023-02-28T17:04:44.286Z,66.2
2023-02-28T17:07:11.473Z,66.3
2023-02-28T17:09:37.596Z,66.7
2023-02-28T17:12:04.343Z,67.3
2023-02-28T17:14:31.012Z,67.4
2023-02-28T17:16:59.596Z,67.6
2023-02-28T17:19:22.889Z,68.4
2023-02-28T17:21:49.645Z,69.6
2023-02-28T17:24:16.283Z,70
2023-02-28T17:29:09.674Z,71.3
2023-02-28T17:31:36.393Z,72.4
2023-02-28T17:34:02.881Z,73.9
2023-02-28T17:36:29.560Z,75.5
2023-02-28T17:38:56.455Z,78
2023-02-28T17:41:23.070Z,80.6
2023-02-28T17:43:49.790Z,83.2
2023-02-28T17:46:16.441Z,88.2
2023-02-28T17:48:43.133Z,92.4
2023-02-28T17:51:09.428Z,96.1
2023-02-28T17:53:36.123Z,97.9
2023-02-28T17:56:02.772Z,100
2023-02-28T17:58:29.500Z,100
2023-02-28T18:00:56.229Z,100
2023-02-28T18:03:22.852Z,100
2023-02-28T18:05:49.508Z,100
2023-02-28T18:08:16.245Z,100
2023-02-28T18:10:42.841Z,100
2023-02-28T18:13:09.614Z,100
2023-02-28T18:15:36.282Z,100
2023-02-28T18:18:02.942Z,100
2023-02-28T18:20:29.675Z,100
2023-02-28T18:22:54.882Z,100
2023-02-28T18:25:21.567Z,100
2023-02-28T18:27:48.245Z,100
2023-02-28T18:30:14.929Z,100
2023-02-28T18:35:08.135Z,100
2023-02-28T18:37:34.982Z,100
2023-02-28T18:40:01.692Z,100
2023-02-28T18:44:55.026Z,100
2023-02-28T18:47:21.691Z,100
2023-02-28T18:49:48.367Z,100
2023-02-28T18:52:15.003Z,100
2023-02-28T18:54:40.218Z,100
2023-02-28T18:59:33.521Z,100
2023-02-28T19:02:00.269Z,100
2023-02-28T19:04:25.440Z,100
2023-02-28T19:06:50.700Z,100
2023-02-28T19:09:17.398Z,100
2023-02-28T19:11:44.040Z,100
2023-02-28T19:14:10.730Z,100
2023-02-28T19:16:37.644Z,100
2023-02-28T19:19:04.308Z,100
2023-02-28T19:21:30.896Z,100
2023-02-28T19:23:57.575Z,100
2023-02-28T19:28:50.884Z,100
2023-02-28T19:31:17.538Z,100
2023-02-28T19:33:44.365Z,100
2023-02-28T19:36:11.032Z,100
2023-02-28T19:38:36.321Z,100
2023-02-28T19:41:02.927Z,100
2023-02-28T19:43:29.613Z,100
2023-02-28T19:45:56.321Z,100
2023-02-28T19:48:22.903Z,100
2023-02-28T19:50:49.550Z,100
2023-02-28T19:53:16.384Z,100
2023-02-28T19:58:09.736Z,100
2023-02-28T20:00:36.419Z,100
2023-02-28T20:03:02.995Z,100
2023-02-28T20:05:29.632Z,100
2023-02-28T20:07:56.348Z,100
2023-02-28T20:10:21.563Z,100
2023-02-28T20:12:48.246Z,100
2023-02-28T20:15:14.942Z,100
2023-02-28T20:17:41.675Z,100
2023-02-28T20:20:08.661Z,100
2023-02-28T20:22:35.091Z,100
2023-02-28T20:27:26.962Z,100
2023-02-28T20:29:52.259Z,100
2023-02-28T20:32:18.901Z,100
2023-02-28T20:34:45.662Z,100
2023-02-28T20:37:12.252Z,100
2023-02-28T20:39:38.891Z,100
2023-02-28T20:42:05.689Z,100
2023-02-28T20:44:32.340Z,100
2023-02-28T20:46:58.958Z,100
2023-02-28T20:49:24.406Z,100
2023-02-28T20:51:49.481Z,100
2023-02-28T20:54:16.175Z,100
2023-02-28T20:56:42.919Z,100
2023-02-28T20:59:09.587Z,100
2023-02-28T21:01:36.307Z,100
2023-02-28T21:04:03.015Z,100
2023-02-28T21:06:29.652Z,100
2023-02-28T21:08:56.353Z,100
2023-02-28T21:11:23.013Z,100
2023-02-28T21:16:16.353Z,100
2023-02-28T21:18:43.103Z,100
2023-02-28T21:21:09.675Z,100
2023-02-28T21:23:35.031Z,100
2023-02-28T21:26:01.693Z,100
2023-02-28T21:28:28.256Z,100
2023-02-28T21:30:55.082Z,100
2023-02-28T21:33:21.730Z,100
2023-02-28T21:35:48.312Z,100
2023-02-28T21:38:15.064Z,100
2023-02-28T21:40:41.719Z,100
2023-02-28T21:43:08.367Z,100
2023-02-28T21:45:35.164Z,100
2023-02-28T21:48:01.746Z,100
2023-02-28T21:50:28.494Z,100
2023-02-28T21:52:55.235Z,100
2023-02-28T21:55:20.458Z,100
2023-02-28T21:57:47.049Z,100
2023-02-28T22:00:13.723Z,100
2023-02-28T22:02:40.496Z,98.3
2023-02-28T22:05:07.232Z,98.8
2023-02-28T22:07:33.949Z,100
2023-02-28T22:10:00.491Z,100
2023-02-28T22:12:27.275Z,100
2023-02-28T22:14:53.968Z,99.1
2023-02-28T22:17:20.602Z,98
2023-02-28T22:19:47.223Z,96.1
2023-02-28T22:22:13.962Z,97
2023-02-28T22:24:40.556Z,98
2023-02-28T22:27:05.785Z,98.2
2023-02-28T22:29:32.613Z,98.5
2023-02-28T22:31:59.329Z,98.3
2023-02-28T22:34:25.994Z,98.2
2023-02-28T22:36:52.581Z,97.8
2023-02-28T22:39:19.373Z,96.6
2023-02-28T22:41:45.999Z,96.9
2023-02-28T22:44:12.848Z,96.7
2023-02-28T22:46:39.268Z,95.1
2023-02-28T22:49:06.109Z,94.6
2023-02-28T22:51:32.659Z,94.7
2023-02-28T22:53:59.412Z,93.7
2023-02-28T22:56:26.063Z,93.6
2023-02-28T22:58:51.256Z,94.6
2023-02-28T23:01:18.053Z,95.9
2023-02-28T23:03:44.591Z,95.5
2023-02-28T23:06:11.424Z,94.3
2023-02-28T23:08:38.118Z,93.8
2023-02-28T23:11:04.763Z,94.5
2023-02-28T23:13:31.501Z,95.3
2023-02-28T23:15:58.192Z,96.1
2023-02-28T23:18:24.777Z,96.3
2023-02-28T23:20:51.490Z,95.9
2023-02-28T23:23:18.337Z,96.1
2023-02-28T23:25:44.794Z,96.1
2023-02-28T23:28:11.469Z,94.1
2023-02-28T23:30:38.260Z,93.6
2023-02-28T23:33:05.017Z,94.1
2023-02-28T23:35:31.593Z,93.5
2023-02-28T23:37:56.734Z,93.6
2023-02-28T23:40:23.584Z,93.4
2023-02-28T23:42:50.168Z,92.7
2023-02-28T23:45:16.809Z,92.4
2023-02-28T23:47:43.479Z,91.2
2023-02-28T23:50:10.164Z,90.8
2023-02-28T23:52:35.547Z,91.2
2023-02-28T23:55:02.108Z,91
2023-02-28T23:57:28.874Z,91.1
2023-02-28T23:59:55.578Z,90.5
